createdAt,value
2023-04-15T00:00:45.062Z,43.86
2023-04-15T00:01:45.120Z,43.96
2023-04-15T00:02:45.160Z,43.86
2023-04-15T00:03:45.265Z,43.86
2023-04-15T00:04:45.021Z,43.86
2023-04-15T00:05:44.990Z,43.86
2023-04-15T00:06:44.986Z,43.86
2023-04-15T00:07:44.969Z,43.86
2023-04-15T00:08:44.954Z,43.86
2023-04-15T00:09:44.959Z,43.86
2023-04-15T00:10:44.990Z,43.86
2023-04-15T00:11:44.924Z,43.84
2023-04-15T00:12:44.919Z,43.84
2023-04-15T00:13:44.905Z,43.86
2023-04-15T00:14:44.896Z,43.86
2023-04-15T00:15:44.872Z,43.84
2023-04-15T00:16:44.926Z,43.86
2023-04-15T00:17:44.881Z,43.86
2023-04-15T00:18:44.846Z,43.84
2023-04-15T00:19:44.875Z,43.84
2023-04-15T00:20:44.823Z,43.86
2023-04-15T00:21:44.806Z,43.86
2023-04-15T00:22:44.809Z,43.86
2023-04-15T00:23:44.789Z,43.84
2023-04-15T00:24:44.782Z,43.86
2023-04-15T00:25:44.781Z,43.84
2023-04-15T00:26:44.755Z,43.84
2023-04-15T00:27:44.746Z,43.86
2023-04-15T00:28:44.746Z,43.84
2023-04-15T00:29:44.734Z,43.84
2023-04-15T00:30:44.785Z,43.86
2023-04-15T00:31:44.699Z,43.84
2023-04-15T00:32:44.751Z,43.86
2023-04-15T00:33:44.676Z,43.86
2023-04-15T00:34:44.671Z,43.86
2023-04-15T00:35:44.670Z,43.84
2023-04-15T00:36:44.655Z,43.74
2023-04-15T00:37:46.235Z,43.86
2023-04-15T00:38:44.632Z,43.86
2023-04-15T00:39:44.615Z,43.86
2023-04-15T00:40:44.618Z,43.86
2023-04-15T00:41:44.590Z,43.86
2023-04-15T00:42:44.608Z,43.84
2023-04-15T00:43:44.570Z,43.86
2023-04-15T00:44:44.568Z,43.84
2023-04-15T00:45:44.592Z,43.86
2023-04-15T00:46:44.542Z,43.86
2023-04-15T00:47:44.569Z,43.86
2023-04-15T00:48:44.522Z,43.86
2023-04-15T00:49:44.502Z,43.86
2023-04-15T00:50:44.512Z,43.84
2023-04-15T00:51:44.483Z,43.84
2023-04-15T00:52:44.483Z,43.86
2023-04-15T00:53:44.461Z,43.84
2023-04-15T00:54:44.452Z,43.76
2023-04-15T00:55:44.490Z,43.86
2023-04-15T00:56:44.435Z,43.86
2023-04-15T00:57:44.418Z,43.86
2023-04-15T00:58:44.417Z,43.76
2023-04-15T00:59:44.405Z,43.84
2023-04-15T01:00:44.388Z,43.86
2023-04-15T01:01:44.382Z,43.86
2023-04-15T01:02:44.459Z,43.86
2023-04-15T01:03:44.601Z,43.74
2023-04-15T01:04:44.343Z,43.84
2023-04-15T01:05:44.347Z,43.74
2023-04-15T01:06:44.331Z,43.86
2023-04-15T01:07:44.307Z,43.74
2023-04-15T01:08:44.290Z,43.84
2023-04-15T01:09:44.282Z,43.76
2023-04-15T01:10:44.272Z,43.74
2023-04-15T01:11:44.269Z,43.86
2023-04-15T01:12:44.250Z,43.86
2023-04-15T01:13:44.246Z,43.84
2023-04-15T01:14:44.230Z,43.76
2023-04-15T01:15:44.332Z,43.86
2023-04-15T01:16:44.210Z,43.86
2023-04-15T01:17:44.249Z,43.86
2023-04-15T01:18:44.201Z,43.86
2023-04-15T01:19:45.145Z,43.86
2023-04-15T01:20:44.171Z,43.86
2023-04-15T01:21:44.149Z,43.86
2023-04-15T01:22:44.156Z,43.86
2023-04-15T01:23:44.121Z,43.84
2023-04-15T01:24:44.132Z,43.86
2023-04-15T01:25:44.104Z,43.76
2023-04-15T01:26:44.687Z,43.76
2023-04-15T01:27:44.093Z,43.76
2023-04-15T01:28:44.075Z,43.76
2023-04-15T01:29:44.068Z,43.74
2023-04-15T01:30:44.054Z,43.76
2023-04-15T01:31:44.089Z,43.76
2023-04-15T01:32:44.124Z,43.76
2023-04-15T01:33:44.028Z,43.84
2023-04-15T01:34:44.024Z,43.86
2023-04-15T01:35:43.999Z,43.86
2023-04-15T01:36:43.994Z,43.86
2023-04-15T01:37:43.969Z,43.74
2023-04-15T01:38:43.963Z,43.76
2023-04-15T01:39:43.956Z,43.76
2023-04-15T01:40:43.944Z,43.76
2023-04-15T01:41:43.930Z,43.74
2023-04-15T01:42:43.929Z,43.76
2023-04-15T01:43:43.919Z,43.76
2023-04-15T01:44:43.908Z,43.76
2023-04-15T01:45:43.903Z,43.74
2023-04-15T01:46:43.946Z,43.76
2023-04-15T01:47:43.916Z,43.76
2023-04-15T01:48:43.876Z,43.74
2023-04-15T01:49:43.870Z,43.74
2023-04-15T01:50:43.850Z,43.74
2023-04-15T01:51:43.827Z,43.74
2023-04-15T01:52:43.826Z,43.74
2023-04-15T01:53:43.803Z,43.74
2023-04-15T01:54:43.825Z,43.74
2023-04-15T01:55:43.795Z,43.76
2023-04-15T01:56:43.771Z,43.74
2023-04-15T01:57:43.777Z,43.74
2023-04-15T01:58:43.753Z,43.74
2023-04-15T01:59:43.787Z,43.74
2023-04-15T02:00:43.796Z,43.76
2023-04-15T02:01:43.724Z,43.74
2023-04-15T02:02:43.820Z,43.74
2023-04-15T02:03:43.777Z,43.74
2023-04-15T02:04:43.734Z,43.74
2023-04-15T02:05:43.682Z,43.74
2023-04-15T02:06:43.660Z,43.74
2023-04-15T02:07:43.665Z,43.74
2023-04-15T02:08:43.642Z,43.74
2023-04-15T02:09:43.643Z,43.74
2023-04-15T02:10:43.662Z,43.74
2023-04-15T02:11:43.617Z,43.74
2023-04-15T02:12:43.608Z,43.74
2023-04-15T02:13:43.593Z,43.74
2023-04-15T02:14:43.576Z,43.74
2023-04-15T02:15:43.587Z,43.74
2023-04-15T02:16:43.584Z,43.74
2023-04-15T02:17:43.599Z,43.74
2023-04-15T02:18:43.537Z,43.64
2023-04-15T02:19:43.629Z,43.74
2023-04-15T02:20:43.516Z,43.74
2023-04-15T02:21:43.502Z,43.74
2023-04-15T02:22:43.502Z,43.74
2023-04-15T02:23:43.485Z,43.74
2023-04-15T02:24:43.485Z,43.74
2023-04-15T02:25:43.477Z,43.74
2023-04-15T02:26:43.454Z,43.74
2023-04-15T02:27:43.455Z,43.64
2023-04-15T02:28:43.432Z,43.64
2023-04-15T02:29:43.438Z,43.64
2023-04-15T02:30:43.419Z,43.74
2023-04-15T02:31:43.442Z,43.74
2023-04-15T02:32:43.470Z,43.74
2023-04-15T02:33:43.378Z,43.74
2023-04-15T02:34:43.373Z,43.74
2023-04-15T02:35:43.358Z,43.64
2023-04-15T02:36:43.338Z,43.74
2023-04-15T02:37:43.464Z,43.64
2023-04-15T02:38:43.325Z,43.74
2023-04-15T02:39:43.316Z,43.74
2023-04-15T02:40:43.294Z,43.64
2023-04-15T02:41:43.287Z,43.74
2023-04-15T02:42:43.389Z,43.74
2023-04-15T02:43:43.278Z,43.74
2023-04-15T02:44:43.267Z,43.74
2023-04-15T02:45:43.333Z,43.74
2023-04-15T02:46:43.233Z,43.74
2023-04-15T02:47:43.308Z,43.74
2023-04-15T02:48:43.207Z,43.64
2023-04-15T02:49:43.203Z,43.64
2023-04-15T02:50:43.208Z,43.64
2023-04-15T02:51:43.178Z,43.64
2023-04-15T02:52:43.210Z,43.74
2023-04-15T02:53:43.157Z,43.74
2023-04-15T02:54:43.149Z,43.64
2023-04-15T02:55:43.176Z,43.74
2023-04-15T02:56:43.119Z,43.74
2023-04-15T02:57:43.108Z,43.74
2023-04-15T02:58:43.099Z,43.74
2023-04-15T02:59:43.157Z,43.64
2023-04-15T03:00:43.092Z,43.64
2023-04-15T03:01:43.193Z,43.64
2023-04-15T03:02:43.404Z,43.64
2023-04-15T03:03:43.103Z,43.74
2023-04-15T03:04:43.033Z,43.74
2023-04-15T03:05:43.017Z,43.74
2023-04-15T03:06:43.000Z,43.74
2023-04-15T03:07:43.010Z,43.64
2023-04-15T03:08:43.014Z,43.64
2023-04-15T03:09:43.035Z,43.74
2023-04-15T03:10:42.954Z,43.64
2023-04-15T03:11:42.947Z,43.64
2023-04-15T03:12:42.948Z,43.64
2023-04-15T03:13:42.923Z,43.74
2023-04-15T03:14:42.911Z,43.74
2023-04-15T03:15:42.955Z,43.64
2023-04-15T03:16:42.910Z,43.64
2023-04-15T03:17:42.910Z,43.64
2023-04-15T03:18:42.871Z,43.76
2023-04-15T03:19:42.857Z,43.74
2023-04-15T03:20:42.884Z,43.64
2023-04-15T03:21:42.835Z,43.74
2023-04-15T03:22:42.836Z,43.66
2023-04-15T03:23:42.825Z,43.74
2023-04-15T03:24:42.801Z,43.64
2023-04-15T03:25:42.792Z,43.64
2023-04-15T03:26:42.875Z,43.76
2023-04-15T03:27:42.777Z,43.76
2023-04-15T03:28:42.765Z,43.74
2023-04-15T03:29:42.757Z,43.66
2023-04-15T03:30:42.740Z,43.74
2023-04-15T03:31:42.732Z,43.66
2023-04-15T03:32:42.768Z,43.66
2023-04-15T03:33:42.716Z,43.64
2023-04-15T03:34:42.689Z,43.66
2023-04-15T03:35:42.678Z,43.64
2023-04-15T03:36:42.668Z,43.66
2023-04-15T03:37:42.662Z,43.64
2023-04-15T03:38:42.676Z,43.66
2023-04-15T03:39:42.638Z,43.64
2023-04-15T03:40:42.625Z,43.66
2023-04-15T03:41:42.624Z,43.64
2023-04-15T03:42:42.619Z,43.64
2023-04-15T03:43:42.602Z,43.74
2023-04-15T03:44:42.585Z,43.74
2023-04-15T03:45:42.583Z,43.64
2023-04-15T03:46:42.602Z,43.64
2023-04-15T03:47:42.585Z,43.64
2023-04-15T03:48:42.532Z,43.64
2023-04-15T03:49:42.530Z,43.64
2023-04-15T03:50:42.528Z,43.64
2023-04-15T03:51:42.523Z,43.64
2023-04-15T03:52:42.493Z,43.64
2023-04-15T03:53:42.491Z,43.54
2023-04-15T03:54:42.472Z,43.54
2023-04-15T03:55:42.470Z,43.54
2023-04-15T03:56:42.450Z,43.54
2023-04-15T03:57:42.448Z,43.54
2023-04-15T03:58:42.427Z,43.54
2023-04-15T03:59:42.502Z,43.54
2023-04-15T04:00:42.413Z,43.54
2023-04-15T04:01:42.437Z,43.44
2023-04-15T04:02:42.564Z,43.44
2023-04-15T04:03:42.552Z,43.44
2023-04-15T04:04:42.367Z,43.44
2023-04-15T04:05:42.362Z,43.34
2023-04-15T04:06:42.340Z,43.44
2023-04-15T04:07:42.331Z,43.44
2023-04-15T04:08:42.325Z,43.44
2023-04-15T04:09:42.323Z,43.44
2023-04-15T04:10:42.305Z,43.44
2023-04-15T04:11:42.299Z,43.44
2023-04-15T04:12:42.274Z,43.44
2023-04-15T04:13:42.268Z,43.42
2023-04-15T04:14:42.250Z,43.42
2023-04-15T04:15:42.268Z,43.32
2023-04-15T04:16:42.276Z,43.32
2023-04-15T04:17:42.254Z,43.32
2023-04-15T04:18:42.201Z,43.34
2023-04-15T04:19:42.206Z,43.32
2023-04-15T04:20:42.191Z,43.32
2023-04-15T04:21:42.176Z,43.32
2023-04-15T04:22:42.171Z,43.34
2023-04-15T04:23:42.154Z,43.34
2023-04-15T04:24:42.144Z,43.32
2023-04-15T04:25:42.130Z,43.32
2023-04-15T04:26:42.127Z,43.34
2023-04-15T04:27:42.124Z,43.34
2023-04-15T04:28:42.097Z,43.34
2023-04-15T04:29:42.087Z,43.32
2023-04-15T04:30:42.069Z,43.34
2023-04-15T04:31:42.164Z,43.34
2023-04-15T04:32:42.094Z,43.34
2023-04-15T04:33:42.038Z,43.34
2023-04-15T04:34:42.023Z,43.34
2023-04-15T04:35:42.018Z,43.34
2023-04-15T04:36:42.010Z,43.34
2023-04-15T04:37:41.992Z,43.34
2023-04-15T04:38:41.995Z,43.34
2023-04-15T04:39:41.979Z,43.44
2023-04-15T04:40:41.971Z,43.44
2023-04-15T04:41:41.951Z,43.34
2023-04-15T04:42:41.933Z,43.44
2023-04-15T04:43:41.937Z,43.44
2023-04-15T04:44:41.911Z,43.44
2023-04-15T04:45:41.946Z,43.44
2023-04-15T04:46:41.889Z,43.44
2023-04-15T04:47:41.905Z,43.44
2023-04-15T04:48:41.878Z,43.44
2023-04-15T04:49:41.868Z,43.44
2023-04-15T04:50:41.848Z,43.44
2023-04-15T04:51:41.842Z,43.44
2023-04-15T04:52:41.829Z,43.44
2023-04-15T04:53:41.829Z,43.44
2023-04-15T04:54:41.821Z,43.44
2023-04-15T04:55:41.790Z,43.44
2023-04-15T04:56:41.778Z,43.54
2023-04-15T04:57:41.771Z,43.44
2023-04-15T04:58:41.767Z,43.54
2023-04-15T04:59:41.743Z,43.44
2023-04-15T05:00:41.741Z,43.54
2023-04-15T05:01:41.808Z,43.44
2023-04-15T05:02:41.837Z,43.54
2023-04-15T05:03:41.862Z,43.54
2023-04-15T05:04:41.714Z,43.54
2023-04-15T05:05:41.716Z,43.54
2023-04-15T05:06:41.678Z,43.54
2023-04-15T05:07:41.677Z,43.54
2023-04-15T05:08:41.653Z,43.54
2023-04-15T05:09:41.643Z,43.54
2023-04-15T05:10:41.634Z,43.54
2023-04-15T05:11:41.624Z,43.54
2023-04-15T05:12:41.616Z,43.54
2023-04-15T05:13:41.596Z,43.54
2023-04-15T05:14:41.585Z,43.54
2023-04-15T05:15:41.628Z,43.54
2023-04-15T05:16:41.560Z,43.54
2023-04-15T05:17:41.606Z,43.54
2023-04-15T05:18:41.541Z,43.54
2023-04-15T05:19:42.234Z,43.54
2023-04-15T05:20:41.544Z,43.54
2023-04-15T05:21:41.510Z,43.54
2023-04-15T05:22:41.496Z,43.54
2023-04-15T05:23:41.485Z,43.54
2023-04-15T05:24:41.476Z,43.54
2023-04-15T05:25:41.492Z,43.54
2023-04-15T05:26:42.775Z,43.54
2023-04-15T05:27:41.454Z,43.54
2023-04-15T05:28:41.432Z,43.54
2023-04-15T05:29:41.426Z,43.54
2023-04-15T05:30:41.433Z,43.44
2023-04-15T05:31:41.426Z,43.54
2023-04-15T05:32:41.440Z,43.54
2023-04-15T05:33:41.390Z,43.44
2023-04-15T05:34:41.365Z,43.44
2023-04-15T05:35:41.370Z,43.44
2023-04-15T05:36:41.351Z,43.44
2023-04-15T05:37:41.339Z,43.44
2023-04-15T05:38:41.314Z,43.44
2023-04-15T05:39:41.326Z,43.44
2023-04-15T05:40:41.297Z,43.44
2023-04-15T05:41:41.294Z,43.44
2023-04-15T05:42:41.278Z,43.44
2023-04-15T05:43:41.275Z,43.52
2023-04-15T05:44:41.279Z,43.44
2023-04-15T05:45:41.259Z,43.44
2023-04-15T05:46:41.259Z,43.44
2023-04-15T05:47:41.279Z,43.42
2023-04-15T05:48:41.212Z,43.42
2023-04-15T05:49:41.217Z,43.44
2023-04-15T05:50:41.200Z,43.44
2023-04-15T05:51:41.186Z,43.42
2023-04-15T05:52:41.169Z,43.44
2023-04-15T05:53:41.165Z,43.42
2023-04-15T05:54:41.160Z,43.42
2023-04-15T05:55:41.149Z,43.42
2023-04-15T05:56:41.127Z,43.44
2023-04-15T05:57:41.124Z,43.42
2023-04-15T05:58:41.104Z,43.42
2023-04-15T05:59:41.098Z,43.44
2023-04-15T06:00:41.094Z,43.42
2023-04-15T06:01:41.085Z,43.44
2023-04-15T06:02:41.209Z,43.42
2023-04-15T06:03:41.191Z,43.42
2023-04-15T06:04:41.071Z,43.42
2023-04-15T06:05:41.038Z,43.42
2023-04-15T06:06:41.021Z,43.44
2023-04-15T06:07:41.017Z,43.42
2023-04-15T06:08:40.992Z,43.42
2023-04-15T06:09:40.981Z,43.42
2023-04-15T06:10:40.980Z,43.42
2023-04-15T06:11:40.970Z,43.42
2023-04-15T06:12:40.972Z,43.42
2023-04-15T06:13:40.940Z,43.42
2023-04-15T06:14:40.935Z,43.42
2023-04-15T06:15:40.922Z,43.42
2023-04-15T06:16:41.052Z,43.42
2023-04-15T06:17:40.912Z,43.42
2023-04-15T06:18:40.892Z,43.42
2023-04-15T06:19:40.901Z,43.42
2023-04-15T06:20:40.862Z,43.42
2023-04-15T06:21:40.854Z,43.42
2023-04-15T06:22:40.844Z,43.42
2023-04-15T06:23:40.822Z,43.42
2023-04-15T06:24:40.820Z,43.42
2023-04-15T06:25:40.823Z,43.42
2023-04-15T06:26:40.794Z,43.42
2023-04-15T06:27:40.779Z,43.42
2023-04-15T06:28:40.795Z,43.42
2023-04-15T06:29:40.759Z,43.42
2023-04-15T06:30:40.769Z,43.42
2023-04-15T06:31:40.779Z,43.42
2023-04-15T06:32:40.747Z,43.42
2023-04-15T06:33:40.721Z,43.42
2023-04-15T06:34:40.716Z,43.42
2023-04-15T06:35:40.706Z,43.42
2023-04-15T06:36:40.681Z,43.42
2023-04-15T06:37:40.676Z,43.42
2023-04-15T06:38:40.676Z,43.42
2023-04-15T06:39:40.660Z,43.42
2023-04-15T06:40:40.641Z,43.42
2023-04-15T06:41:40.628Z,43.52
2023-04-15T06:42:40.621Z,43.42
2023-04-15T06:43:40.559Z,43.52
2023-04-15T06:44:40.551Z,43.52
2023-04-15T06:45:40.590Z,43.52
2023-04-15T06:46:40.527Z,43.42
2023-04-15T06:47:40.522Z,43.52
2023-04-15T06:48:40.499Z,43.52
2023-04-15T06:49:40.493Z,43.52
2023-04-15T06:50:40.496Z,43.52
2023-04-15T06:51:40.455Z,43.52
2023-04-15T06:52:40.513Z,43.52
2023-04-15T06:53:40.523Z,43.52
2023-04-15T06:54:40.495Z,43.52
2023-04-15T06:55:40.496Z,43.52
2023-04-15T06:56:40.470Z,43.52
2023-04-15T06:57:40.502Z,43.52
2023-04-15T06:58:40.449Z,43.52
2023-04-15T06:59:40.442Z,43.52
2023-04-15T07:00:40.573Z,43.52
2023-04-15T07:01:40.408Z,43.52
2023-04-15T07:02:40.507Z,43.52
2023-04-15T07:03:40.366Z,43.52
2023-04-15T07:04:40.536Z,43.52
2023-04-15T07:05:40.322Z,43.52
2023-04-15T07:06:40.304Z,43.52
2023-04-15T07:07:40.326Z,43.52
2023-04-15T07:08:40.340Z,43.52
2023-04-15T07:09:40.333Z,43.52
2023-04-15T07:10:40.321Z,43.52
2023-04-15T07:11:40.319Z,43.52
2023-04-15T07:12:40.338Z,43.52
2023-04-15T07:13:40.285Z,43.52
2023-04-15T07:14:40.276Z,43.52
2023-04-15T07:15:40.250Z,43.52
2023-04-15T07:16:40.289Z,43.52
2023-04-15T07:17:40.290Z,43.52
2023-04-15T07:18:40.247Z,43.52
2023-04-15T07:19:40.207Z,43.52
2023-04-15T07:20:40.205Z,43.52
2023-04-15T07:21:41.922Z,43.52
2023-04-15T07:22:40.190Z,43.52
2023-04-15T07:23:40.191Z,43.52
2023-04-15T07:24:40.157Z,43.52
2023-04-15T07:25:40.143Z,43.52
2023-04-15T07:26:40.156Z,43.52
2023-04-15T07:27:40.123Z,43.52
2023-04-15T07:28:40.108Z,43.52
2023-04-15T07:29:40.099Z,43.52
2023-04-15T07:30:40.126Z,43.52
2023-04-15T07:31:40.101Z,43.52
2023-04-15T07:32:40.101Z,43.52
2023-04-15T07:33:40.067Z,43.52
2023-04-15T07:34:40.075Z,43.52
2023-04-15T07:35:40.039Z,43.52
2023-04-15T07:36:40.036Z,43.52
2023-04-15T07:37:40.022Z,43.52
2023-04-15T07:38:40.018Z,43.52
2023-04-15T07:39:40.050Z,43.52
2023-04-15T07:40:39.992Z,43.52
2023-04-15T07:41:39.967Z,43.52
2023-04-15T07:42:41.374Z,43.62
2023-04-15T07:43:39.950Z,43.52
2023-04-15T07:44:39.942Z,43.52
2023-04-15T07:45:39.939Z,43.52
2023-04-15T07:46:40.025Z,43.62
2023-04-15T07:47:39.929Z,43.62
2023-04-15T07:48:39.917Z,43.62
2023-04-15T07:49:39.882Z,43.62
2023-04-15T07:50:39.885Z,43.62
2023-04-15T07:51:39.874Z,43.62
2023-04-15T07:52:39.884Z,43.62
2023-04-15T07:53:39.835Z,43.62
2023-04-15T07:54:39.837Z,43.62
2023-04-15T07:55:39.828Z,43.62
2023-04-15T07:56:39.820Z,43.62
2023-04-15T07:57:39.792Z,43.62
2023-04-15T07:58:39.786Z,43.62
2023-04-15T07:59:39.770Z,43.62
2023-04-15T08:00:39.781Z,43.62
2023-04-15T08:01:39.756Z,43.62
2023-04-15T08:02:40.666Z,43.62
2023-04-15T08:03:39.919Z,43.62
2023-04-15T08:04:39.981Z,43.62
2023-04-15T08:05:39.714Z,43.62
2023-04-15T08:06:39.745Z,43.62
2023-04-15T08:07:39.698Z,43.62
2023-04-15T08:08:39.690Z,43.62
2023-04-15T08:09:39.665Z,43.62
2023-04-15T08:10:39.663Z,43.62
2023-04-15T08:11:39.591Z,43.62
2023-04-15T08:12:39.580Z,43.62
2023-04-15T08:13:39.575Z,43.62
2023-04-15T08:14:39.552Z,43.62
2023-04-15T08:15:39.573Z,43.62
2023-04-15T08:16:39.644Z,43.62
2023-04-15T08:17:39.643Z,43.62
2023-04-15T08:18:39.535Z,43.62
2023-04-15T08:19:39.550Z,43.62
2023-04-15T08:20:39.539Z,43.62
2023-04-15T08:21:39.482Z,43.62
2023-04-15T08:22:39.519Z,43.62
2023-04-15T08:23:39.508Z,43.62
2023-04-15T08:24:39.522Z,43.62
2023-04-15T08:25:39.481Z,43.62
2023-04-15T08:26:39.483Z,43.62
2023-04-15T08:27:39.467Z,43.62
2023-04-15T08:28:39.452Z,43.62
2023-04-15T08:29:39.434Z,43.62
2023-04-15T08:30:39.489Z,43.62
2023-04-15T08:31:39.450Z,43.62
2023-04-15T08:32:39.477Z,43.62
2023-04-15T08:33:39.396Z,43.62
2023-04-15T08:34:39.345Z,43.62
2023-04-15T08:35:39.323Z,43.62
2023-04-15T08:36:39.365Z,43.62
2023-04-15T08:37:39.357Z,43.62
2023-04-15T08:38:39.338Z,43.62
2023-04-15T08:39:39.328Z,43.62
2023-04-15T08:40:39.333Z,43.62
2023-04-15T08:41:39.295Z,43.62
2023-04-15T08:42:39.255Z,43.62
2023-04-15T08:43:39.225Z,43.62
2023-04-15T08:44:39.277Z,43.62
2023-04-15T08:45:39.276Z,43.62
2023-04-15T08:46:39.309Z,43.62
2023-04-15T08:47:39.262Z,43.62
2023-04-15T08:48:39.242Z,43.62
2023-04-15T08:49:39.225Z,43.62
2023-04-15T08:50:39.226Z,43.62
2023-04-15T08:51:39.222Z,43.62
2023-04-15T08:52:39.135Z,43.62
2023-04-15T08:53:39.119Z,43.62
2023-04-15T08:54:39.126Z,43.62
2023-04-15T08:55:39.111Z,43.62
2023-04-15T08:56:39.161Z,43.62
2023-04-15T08:57:39.085Z,43.62
2023-04-15T08:58:39.073Z,43.62
2023-04-15T08:59:39.085Z,43.62
2023-04-15T09:00:39.056Z,43.62
2023-04-15T09:01:39.048Z,43.62
2023-04-15T09:02:39.205Z,43.62
2023-04-15T09:03:39.132Z,43.62
2023-04-15T09:04:39.115Z,43.62
2023-04-15T09:05:39.061Z,43.62
2023-04-15T09:06:39.035Z,43.62
2023-04-15T09:07:39.018Z,43.62
2023-04-15T09:08:39.047Z,43.62
2023-04-15T09:09:39.006Z,43.62
2023-04-15T09:10:39.012Z,43.62
2023-04-15T09:11:38.975Z,43.62
2023-04-15T09:12:38.969Z,43.62
2023-04-15T09:13:38.951Z,43.62
2023-04-15T09:14:38.957Z,43.62
2023-04-15T09:15:38.985Z,43.62
2023-04-15T09:16:38.974Z,43.62
2023-04-15T09:17:38.969Z,43.62
2023-04-15T09:18:38.906Z,43.62
2023-04-15T09:19:38.889Z,43.62
2023-04-15T09:20:38.881Z,43.62
2023-04-15T09:21:38.895Z,43.62
2023-04-15T09:22:38.865Z,43.62
2023-04-15T09:23:38.848Z,43.62
2023-04-15T09:24:38.857Z,43.62
2023-04-15T09:25:38.843Z,43.62
2023-04-15T09:26:38.815Z,43.62
2023-04-15T09:27:38.801Z,43.62
2023-04-15T09:28:38.800Z,43.62
2023-04-15T09:29:38.779Z,43.72
2023-04-15T09:30:38.805Z,43.72
2023-04-15T09:31:38.750Z,43.72
2023-04-15T09:32:38.785Z,43.72
2023-04-15T09:33:38.731Z,43.72
2023-04-15T09:34:38.747Z,43.72
2023-04-15T09:35:38.716Z,43.72
2023-04-15T09:36:38.703Z,43.72
2023-04-15T09:37:38.681Z,43.72
2023-04-15T09:38:38.670Z,43.72
2023-04-15T09:39:38.667Z,43.72
2023-04-15T09:40:38.692Z,43.72
2023-04-15T09:41:38.637Z,43.72
2023-04-15T09:42:38.634Z,43.72
2023-04-15T09:43:38.615Z,43.72
2023-04-15T09:44:38.683Z,43.72
2023-04-15T09:45:38.591Z,43.72
2023-04-15T09:46:38.595Z,43.72
2023-04-15T09:47:38.624Z,43.72
2023-04-15T09:48:38.569Z,43.72
2023-04-15T09:49:38.599Z,43.72
2023-04-15T09:50:38.562Z,43.72
2023-04-15T09:51:38.534Z,43.72
2023-04-15T09:52:38.548Z,43.72
2023-04-15T09:53:38.506Z,43.72
2023-04-15T09:54:38.538Z,43.72
2023-04-15T09:55:38.486Z,43.72
2023-04-15T09:56:38.562Z,43.72
2023-04-15T09:57:38.476Z,43.72
2023-04-15T09:58:38.458Z,43.72
2023-04-15T09:59:38.452Z,43.72
2023-04-15T10:00:38.448Z,43.72
2023-04-15T10:01:38.450Z,43.72
2023-04-15T10:02:38.542Z,43.72
2023-04-15T10:03:38.459Z,43.72
2023-04-15T10:04:38.400Z,43.72
2023-04-15T10:05:38.388Z,43.72
2023-04-15T10:06:38.386Z,43.72
2023-04-15T10:07:38.359Z,43.72
2023-04-15T10:08:38.351Z,43.72
2023-04-15T10:09:38.343Z,43.72
2023-04-15T10:10:38.340Z,43.72
2023-04-15T10:11:38.326Z,43.72
2023-04-15T10:12:38.326Z,43.72
2023-04-15T10:13:38.948Z,43.72
2023-04-15T10:14:38.293Z,43.72
2023-04-15T10:15:38.323Z,43.72
2023-04-15T10:16:38.267Z,43.72
2023-04-15T10:17:38.265Z,43.72
2023-04-15T10:18:38.248Z,43.72
2023-04-15T10:19:38.239Z,43.72
2023-04-15T10:20:38.217Z,43.72
2023-04-15T10:21:38.215Z,43.72
2023-04-15T10:22:38.202Z,43.72
2023-04-15T10:23:38.198Z,43.72
2023-04-15T10:24:38.172Z,43.72
2023-04-15T10:25:38.169Z,43.72
2023-04-15T10:26:38.169Z,43.72
2023-04-15T10:27:38.149Z,43.82
2023-04-15T10:28:38.138Z,43.82
2023-04-15T10:29:38.134Z,43.72
2023-04-15T10:30:38.111Z,43.72
2023-04-15T10:31:38.182Z,43.72
2023-04-15T10:32:38.124Z,43.82
2023-04-15T10:33:38.097Z,43.82
2023-04-15T10:34:38.080Z,43.82
2023-04-15T10:35:38.064Z,43.72
2023-04-15T10:36:38.041Z,43.72
2023-04-15T10:37:38.058Z,43.82
2023-04-15T10:38:38.017Z,43.82
2023-04-15T10:39:38.021Z,43.82
2023-04-15T10:40:37.998Z,43.72
2023-04-15T10:41:37.991Z,43.82
2023-04-15T10:42:37.982Z,43.82
2023-04-15T10:43:37.987Z,43.82
2023-04-15T10:44:37.959Z,43.82
2023-04-15T10:45:37.958Z,43.82
2023-04-15T10:46:37.998Z,43.82
2023-04-15T10:47:37.967Z,43.82
2023-04-15T10:48:37.918Z,43.82
2023-04-15T10:49:37.908Z,43.82
2023-04-15T10:50:37.895Z,43.82
2023-04-15T10:51:37.886Z,43.82
2023-04-15T10:52:37.869Z,43.82
2023-04-15T10:53:37.906Z,43.82
2023-04-15T10:54:37.846Z,43.82
2023-04-15T10:55:37.839Z,43.82
2023-04-15T10:56:37.830Z,43.72
2023-04-15T10:57:37.829Z,43.82
2023-04-15T10:58:37.804Z,43.72
2023-04-15T10:59:37.811Z,43.72
2023-04-15T11:00:37.793Z,43.82
2023-04-15T11:01:37.817Z,43.72
2023-04-15T11:02:37.927Z,43.72
2023-04-15T11:03:37.850Z,43.72
2023-04-15T11:04:38.298Z,43.72
2023-04-15T11:05:37.733Z,43.82
2023-04-15T11:06:37.713Z,43.72
2023-04-15T11:07:37.701Z,43.72
2023-04-15T11:08:37.710Z,43.72
2023-04-15T11:09:37.681Z,43.72
2023-04-15T11:10:37.683Z,43.72
2023-04-15T11:11:37.664Z,43.72
2023-04-15T11:12:37.648Z,43.72
2023-04-15T11:13:37.653Z,43.72
2023-04-15T11:14:37.625Z,43.72
2023-04-15T11:15:37.645Z,43.72
2023-04-15T11:16:37.666Z,43.72
2023-04-15T11:17:37.666Z,43.72
2023-04-15T11:18:37.666Z,43.72
2023-04-15T11:19:37.572Z,43.72
2023-04-15T11:20:37.557Z,43.72
2023-04-15T11:21:37.550Z,43.72
2023-04-15T11:22:37.540Z,43.72
2023-04-15T11:23:37.544Z,43.72
2023-04-15T11:24:37.551Z,43.72
2023-04-15T11:25:37.506Z,43.72
2023-04-15T11:26:37.495Z,43.72
2023-04-15T11:27:37.500Z,43.72
2023-04-15T11:28:38.800Z,43.72
2023-04-15T11:29:37.461Z,43.72
2023-04-15T11:30:37.523Z,43.72
2023-04-15T11:31:37.497Z,43.72
2023-04-15T11:32:37.469Z,43.72
2023-04-15T11:33:37.415Z,43.72
2023-04-15T11:34:37.411Z,43.72
2023-04-15T11:35:37.412Z,43.72
2023-04-15T11:36:37.378Z,43.72
2023-04-15T11:37:37.372Z,43.72
2023-04-15T11:38:37.376Z,43.72
2023-04-15T11:39:37.348Z,43.72
2023-04-15T11:40:37.346Z,43.72
2023-04-15T11:41:37.334Z,43.72
2023-04-15T11:42:46.737Z,43.72
2023-04-15T11:43:37.322Z,43.72
2023-04-15T11:44:37.293Z,43.72
2023-04-15T11:45:37.309Z,43.72
2023-04-15T11:46:37.292Z,43.72
2023-04-15T11:47:37.283Z,43.72
2023-04-15T11:48:37.280Z,43.72
2023-04-15T11:49:37.246Z,43.82
2023-04-15T11:50:37.238Z,43.72
2023-04-15T11:51:37.240Z,43.82
2023-04-15T11:52:37.213Z,43.72
2023-04-15T11:53:37.201Z,43.72
2023-04-15T11:54:37.198Z,43.72
2023-04-15T11:55:37.193Z,43.82
2023-04-15T11:56:37.175Z,43.72
2023-04-15T11:57:37.206Z,43.82
2023-04-15T11:58:37.145Z,43.72
2023-04-15T11:59:44.968Z,43.72
2023-04-15T12:00:37.130Z,43.72
2023-04-15T12:01:37.124Z,43.82
2023-04-15T12:02:37.220Z,43.72
2023-04-15T12:03:37.213Z,43.72
2023-04-15T12:04:37.279Z,43.82
2023-04-15T12:05:37.074Z,43.82
2023-04-15T12:06:37.069Z,43.82
2023-04-15T12:07:37.066Z,43.82
2023-04-15T12:08:37.040Z,43.82
2023-04-15T12:09:37.030Z,43.82
2023-04-15T12:10:37.025Z,43.82
2023-04-15T12:11:37.009Z,43.82
2023-04-15T12:12:36.988Z,43.82
2023-04-15T12:13:36.990Z,43.82
2023-04-15T12:14:36.980Z,43.82
2023-04-15T12:15:36.992Z,43.82
2023-04-15T12:16:48.029Z,43.82
2023-04-15T12:17:51.632Z,43.82
2023-04-15T12:18:36.930Z,43.82
2023-04-15T12:19:36.921Z,43.82
2023-04-15T12:20:36.914Z,43.82
2023-04-15T12:21:36.909Z,43.82
2023-04-15T12:22:36.884Z,43.82
2023-04-15T12:23:36.876Z,43.82
2023-04-15T12:24:36.879Z,43.82
2023-04-15T12:25:36.855Z,43.82
2023-04-15T12:26:36.846Z,43.82
2023-04-15T12:27:36.834Z,43.82
2023-04-15T12:28:36.808Z,43.82
2023-04-15T12:29:36.846Z,43.82
2023-04-15T12:30:36.802Z,43.82
2023-04-15T12:31:36.825Z,43.82
2023-04-15T12:32:36.818Z,43.82
2023-04-15T12:33:36.783Z,43.82
2023-04-15T12:34:36.768Z,43.82
2023-04-15T12:35:36.779Z,43.82
2023-04-15T12:36:36.729Z,43.82
2023-04-15T12:37:36.723Z,43.82
2023-04-15T12:38:36.786Z,43.82
2023-04-15T12:39:36.718Z,43.82
2023-04-15T12:40:36.685Z,43.82
2023-04-15T12:41:36.686Z,43.82
2023-04-15T12:42:36.661Z,43.82
2023-04-15T12:43:36.653Z,43.82
2023-04-15T12:44:36.654Z,43.82
2023-04-15T12:45:36.634Z,43.82
2023-04-15T12:46:36.659Z,43.82
2023-04-15T12:47:36.647Z,43.82
2023-04-15T12:48:36.599Z,43.82
2023-04-15T12:49:36.607Z,43.82
2023-04-15T12:50:36.572Z,43.82
2023-04-15T12:51:36.565Z,43.82
2023-04-15T12:52:36.561Z,43.82